createdAt,value
2023-02-15T00:04:12.859Z,0.00
2023-02-15T00:09:12.804Z,0.00
2023-02-15T00:14:12.695Z,0.00
2023-02-15T00:19:12.666Z,0.00
2023-02-15T00:24:12.623Z,0.00
2023-02-15T00:29:12.527Z,0.00
2023-02-15T00:34:12.484Z,0.00
2023-02-15T00:39:12.442Z,0.00
2023-02-15T00:44:12.338Z,0.00
2023-02-15T00:49:12.295Z,0.00
2023-02-15T00:54:12.248Z,0.00
2023-02-15T00:59:12.159Z,0.00
2023-02-15T01:04:12.142Z,0.00
2023-02-15T01:09:29.051Z,0.00
2023-02-15T01:14:21.462Z,0.00
2023-02-15T01:19:21.385Z,0.00
2023-02-15T01:24:21.320Z,0.00
2023-02-15T01:29:21.263Z,0.00
2023-02-15T01:34:21.191Z,0.00
2023-02-15T01:39:21.145Z,0.00
2023-02-15T01:44:21.073Z,0.00
2023-02-15T01:49:20.965Z,0.00
2023-02-15T01:54:20.951Z,0.00
2023-02-15T01:59:20.888Z,0.00
2023-02-15T02:04:20.799Z,0.00
2023-02-15T02:09:20.734Z,0.00
2023-02-15T02:14:20.688Z,0.00
2023-02-15T02:19:20.593Z,0.00
2023-02-15T02:24:20.554Z,0.00
2023-02-15T02:29:20.483Z,0.00
2023-02-15T02:34:20.469Z,0.00
2023-02-15T02:39:20.337Z,0.00
2023-02-15T02:44:20.284Z,0.00
2023-02-15T02:49:20.223Z,0.00
2023-02-15T02:54:20.160Z,0.00
2023-02-15T02:59:20.088Z,0.00
2023-02-15T03:04:20.054Z,0.00
2023-02-15T03:09:19.981Z,0.00
2023-02-15T03:14:19.917Z,0.00
2023-02-15T03:19:19.842Z,0.00
2023-02-15T03:24:19.788Z,0.00
2023-02-15T03:29:19.700Z,0.00
2023-02-15T03:34:20.468Z,0.00
2023-02-15T03:39:19.584Z,0.00
2023-02-15T03:44:19.549Z,0.00
2023-02-15T03:49:19.470Z,0.00
2023-02-15T03:54:19.390Z,0.00
2023-02-15T03:59:19.334Z,0.00
2023-02-15T04:04:19.272Z,0.00
2023-02-15T04:09:19.192Z,0.00
2023-02-15T04:14:19.151Z,0.00
2023-02-15T04:19:19.075Z,0.00
2023-02-15T04:24:19.042Z,0.00
2023-02-15T04:29:18.931Z,0.00
2023-02-15T04:34:18.894Z,0.00
2023-02-15T04:39:18.804Z,0.00
2023-02-15T04:44:18.751Z,0.00
2023-02-15T04:49:18.709Z,0.00
2023-02-15T04:54:18.622Z,0.00
2023-02-15T04:59:18.518Z,0.00
2023-02-15T05:04:18.531Z,0.00
2023-02-15T05:09:18.412Z,0.00
2023-02-15T05:14:18.358Z,0.00
2023-02-15T05:19:34.386Z,0.00
2023-02-15T05:24:26.783Z,0.00
2023-02-15T05:29:26.744Z,0.00
2023-02-15T05:34:26.653Z,0.00
2023-02-15T05:39:26.614Z,0.00
2023-02-15T05:44:26.532Z,0.00
2023-02-15T05:49:26.525Z,0.00
2023-02-15T05:54:26.423Z,0.00
2023-02-15T05:59:26.357Z,0.00
2023-02-15T06:04:26.287Z,0.00
2023-02-15T06:09:26.247Z,0.00
2023-02-15T06:14:26.137Z,0.00
2023-02-15T06:19:27.305Z,0.00
2023-02-15T06:24:26.037Z,4.00
2023-02-15T06:29:25.996Z,12.00
2023-02-15T06:34:25.919Z,20.00
2023-02-15T06:39:25.837Z,32.00
2023-02-15T06:44:25.803Z,52.00
2023-02-15T06:49:25.720Z,72.00
2023-02-15T06:54:25.642Z,96.00
2023-02-15T06:59:25.597Z,124.00
2023-02-15T07:04:25.603Z,164.00
2023-02-15T07:09:25.497Z,204.00
2023-02-15T07:14:26.698Z,252.00
2023-02-15T07:19:25.352Z,288.00
2023-02-15T07:24:25.274Z,352.00
2023-02-15T07:29:25.196Z,404.00
2023-02-15T07:34:25.113Z,448.00
2023-02-15T07:39:25.097Z,508.00
2023-02-15T07:44:25.030Z,556.00
2023-02-15T07:49:26.308Z,620.00
2023-02-15T07:54:24.877Z,748.00
2023-02-15T07:59:24.808Z,872.00
2023-02-15T08:04:24.763Z,848.00
2023-02-15T08:09:24.690Z,896.00
2023-02-15T08:14:24.600Z,1120.00
2023-02-15T08:19:24.551Z,1604.00
2023-02-15T08:24:24.506Z,3444.00
2023-02-15T08:29:24.485Z,8092.00
2023-02-15T08:34:24.382Z,8076.00
2023-02-15T08:39:24.320Z,7908.00
2023-02-15T08:44:24.250Z,8468.00
2023-02-15T08:49:24.217Z,8520.00
2023-02-15T08:54:24.083Z,9060.00
2023-02-15T08:59:24.107Z,9436.00
2023-02-15T09:04:23.966Z,10072.00
2023-02-15T09:09:23.945Z,11868.00
2023-02-15T09:14:23.844Z,16544.00
2023-02-15T09:19:23.796Z,22912.00
2023-02-15T09:24:23.692Z,31776.00
2023-02-15T09:29:23.689Z,42208.00
2023-02-15T09:34:23.566Z,39616.00
2023-02-15T09:39:23.501Z,39360.00
2023-02-15T09:44:23.431Z,42240.00
2023-02-15T09:49:23.380Z,38400.00
2023-02-15T09:54:23.297Z,40288.00
2023-02-15T09:59:23.248Z,43584.00
2023-02-15T10:04:23.182Z,47744.00
2023-02-15T10:09:23.133Z,52544.00
2023-02-15T10:14:23.034Z,46720.00
2023-02-15T10:19:23.003Z,43264.00
2023-02-15T10:24:22.889Z,45568.00
2023-02-15T10:29:22.852Z,40416.00
2023-02-15T10:34:22.762Z,37984.00
2023-02-15T10:39:22.726Z,33600.00
2023-02-15T10:44:22.640Z,29632.00
2023-02-15T10:49:22.573Z,37856.00
2023-02-15T10:54:22.506Z,38688.00
2023-02-15T10:59:22.472Z,36000.00
2023-02-15T11:04:22.371Z,33856.00
2023-02-15T11:09:22.290Z,36128.00
2023-02-15T11:14:22.242Z,32064.00
2023-02-15T11:19:22.244Z,25568.00
2023-02-15T11:24:22.103Z,29280.00
2023-02-15T11:29:22.075Z,30848.00
2023-02-15T11:34:22.028Z,24928.00
2023-02-15T11:39:21.922Z,27296.00
2023-02-15T11:44:21.844Z,21760.00
2023-02-15T11:49:21.784Z,8632.00
2023-02-15T11:54:21.699Z,8056.00
2023-02-15T11:59:22.057Z,15840.00
2023-02-15T12:04:21.761Z,22976.00
2023-02-15T12:09:23.533Z,18048.00
2023-02-15T12:14:21.434Z,17376.00
2023-02-15T12:19:21.404Z,16896.00
2023-02-15T12:24:21.323Z,18976.00
2023-02-15T12:29:21.274Z,17760.00
2023-02-15T12:34:21.171Z,15936.00
2023-02-15T12:39:21.151Z,16352.00
2023-02-15T12:44:21.041Z,14496.00
2023-02-15T12:49:21.340Z,10260.00
2023-02-15T12:54:23.536Z,5780.00
2023-02-15T12:59:23.167Z,4496.00
2023-02-15T13:04:22.238Z,3868.00
2023-02-15T13:09:20.776Z,3652.00
2023-02-15T13:14:20.676Z,3412.00
2023-02-15T13:19:20.606Z,3328.00
2023-02-15T13:24:20.736Z,3120.00
2023-02-15T13:29:20.479Z,3072.00
2023-02-15T13:34:20.374Z,3248.00
2023-02-15T13:39:20.368Z,3184.00
2023-02-15T13:44:20.244Z,4156.00
2023-02-15T13:49:20.215Z,4144.00
2023-02-15T13:54:20.124Z,3832.00
2023-02-15T13:59:20.196Z,3056.00
2023-02-15T14:04:20.060Z,2800.00
2023-02-15T14:09:19.955Z,2784.00
2023-02-15T14:14:19.854Z,2672.00
2023-02-15T14:19:19.873Z,2572.00
2023-02-15T14:24:19.744Z,2448.00
2023-02-15T14:29:19.665Z,2276.00
2023-02-15T14:34:19.592Z,2272.00
2023-02-15T14:39:19.486Z,2268.00
2023-02-15T14:44:19.476Z,2392.00
2023-02-15T14:49:19.387Z,2108.00
2023-02-15T14:54:19.339Z,1820.00
2023-02-15T14:59:19.260Z,1856.00
2023-02-15T15:04:19.215Z,1876.00
2023-02-15T15:09:19.142Z,1720.00
2023-02-15T15:14:19.088Z,1488.00
2023-02-15T15:19:19.008Z,1276.00
2023-02-15T15:24:18.931Z,1276.00
2023-02-15T15:29:18.859Z,1260.00
2023-02-15T15:34:18.811Z,1128.00
2023-02-15T15:39:18.708Z,1056.00
2023-02-15T15:44:18.648Z,936.00
2023-02-15T15:49:18.602Z,848.00
2023-02-15T15:54:18.546Z,768.00
2023-02-15T15:59:18.460Z,676.00
2023-02-15T16:04:18.404Z,596.00
2023-02-15T16:09:18.358Z,516.00
2023-02-15T16:14:18.295Z,448.00
2023-02-15T16:19:18.203Z,372.00
2023-02-15T16:24:18.131Z,296.00
2023-02-15T16:29:18.055Z,228.00
2023-02-15T16:34:18.042Z,164.00
2023-02-15T16:39:17.935Z,112.00
2023-02-15T16:44:17.881Z,76.00
2023-02-15T16:49:17.808Z,52.00
2023-02-15T16:54:17.785Z,28.00
2023-02-15T16:59:17.636Z,12.00
2023-02-15T17:04:17.629Z,4.00
2023-02-15T17:09:17.526Z,4.00
2023-02-15T17:14:17.482Z,4.00
2023-02-15T17:19:17.508Z,0.00
2023-02-15T17:24:17.363Z,0.00
2023-02-15T17:29:17.252Z,0.00
2023-02-15T17:34:17.215Z,0.00
2023-02-15T17:39:17.158Z,0.00
2023-02-15T17:44:17.111Z,0.00
2023-02-15T17:49:17.012Z,0.00
2023-02-15T17:54:17.050Z,0.00
2023-02-15T17:59:16.842Z,0.00
2023-02-15T18:04:16.843Z,0.00
2023-02-15T18:09:16.750Z,0.00
2023-02-15T18:14:16.681Z,0.00
2023-02-15T18:19:16.629Z,0.00
2023-02-15T18:24:16.568Z,0.00
2023-02-15T18:29:16.460Z,0.00
2023-02-15T18:34:16.464Z,0.00
2023-02-15T18:39:16.341Z,0.00
2023-02-15T18:44:16.274Z,0.00
2023-02-15T18:49:16.230Z,0.00
2023-02-15T18:54:16.190Z,0.00
2023-02-15T18:59:16.088Z,0.00
2023-02-15T19:04:16.035Z,0.00
2023-02-15T19:09:15.977Z,0.00
2023-02-15T19:14:15.894Z,0.00
2023-02-15T19:19:16.033Z,0.00
2023-02-15T19:24:15.945Z,0.00
2023-02-15T19:29:15.895Z,0.00
2023-02-15T19:34:15.829Z,0.00
2023-02-15T19:39:15.808Z,0.00
2023-02-15T19:44:15.659Z,0.00
2023-02-15T19:49:15.599Z,0.00
2023-02-15T19:54:15.989Z,0.00
2023-02-15T19:59:15.939Z,0.00
2023-02-15T20:04:15.405Z,0.00
2023-02-15T20:09:15.157Z,0.00
2023-02-15T20:14:15.205Z,0.00
2023-02-15T20:19:15.071Z,0.00
2023-02-15T20:24:15.004Z,0.00
2023-02-15T20:29:14.940Z,0.00
2023-02-15T20:34:16.028Z,0.00
2023-02-15T20:39:15.015Z,0.00
2023-02-15T20:44:15.471Z,0.00
2023-02-15T20:49:14.730Z,0.00
2023-02-15T20:54:14.632Z,0.00
2023-02-15T20:59:15.790Z,0.00
2023-02-15T21:04:16.106Z,0.00
2023-02-15T21:09:14.590Z,0.00
2023-02-15T21:14:16.681Z,0.00
2023-02-15T21:19:14.925Z,0.00
2023-02-15T21:24:15.217Z,0.00
2023-02-15T21:29:14.421Z,0.00
2023-02-15T21:34:14.295Z,0.00
2023-02-15T21:39:14.021Z,0.00
2023-02-15T21:44:13.963Z,0.00
2023-02-15T21:49:13.902Z,0.00
2023-02-15T21:54:13.875Z,0.00
2023-02-15T21:59:13.768Z,0.00
2023-02-15T22:04:13.784Z,0.00
2023-02-15T22:09:13.684Z,0.00
2023-02-15T22:14:13.638Z,0.00
2023-02-15T22:19:13.549Z,0.00
2023-02-15T22:24:13.485Z,0.00
2023-02-15T22:29:13.389Z,0.00
2023-02-15T22:34:13.312Z,0.00
2023-02-15T22:39:13.309Z,0.00
2023-02-15T22:44:13.197Z,0.00
2023-02-15T22:49:13.125Z,0.00
2023-02-15T22:54:13.056Z,0.00
2023-02-15T22:59:12.978Z,0.00
2023-02-15T23:04:12.948Z,0.00
2023-02-15T23:09:12.865Z,0.00
2023-02-15T23:14:12.820Z,0.00
2023-02-15T23:19:12.712Z,0.00
2023-02-15T23:24:12.686Z,0.00
2023-02-15T23:29:12.614Z,0.00
2023-02-15T23:34:12.553Z,0.00
2023-02-15T23:39:12.456Z,0.00
2023-02-15T23:44:12.434Z,0.00
2023-02-15T23:49:12.431Z,0.00
2023-02-15T23:54:13.232Z,0.00
2023-02-15T23:59:12.243Z,0.00
